PWSweather.com
Personal Weather Stations
Station Observations
LONGSUTTON
Long SuttonGB

Long SuttonGB

Lat: 52.776537, Lon: 0.113883

Elevation: 3

Station Type: Davis Vantage Pro 2

http://www.wx-watch.co.uk

Latest ConditionsUpdated 2:56:35 PM GMT Tuesday, Apr 23, 2019
Currently Today's Max Today's Min Today's Average
Temperature 62.9°F17.2°C 63.7°F17.6°C 49.9°F9.9°C 56.1°F13.4°C
Dew Point 45.5°F7.5°C 46.3°F7.9°C 37.3°F2.9°C 40.6°F4.8°C
Winds 1.0 mph NE1.6 kmh NE 10.0 mph -16.1 kmh - - 1.4 mph 2.3 kmh
Wind Gusts 10.0 mph16.1 kmh 13.0 mph20.9 kmh - -
Humidity 53% 62% 48% 56%
Pressure 29.49 in998.6 mb 29.61 in1002.7 mb 29.49 in998.6 mb -
Hour Temp Dew Point Humidity Winds Wind Gusts Pressure Precip Precip Rate Daily Precip Total
02:56 PM 62.9°F17.2°C 45.5°F7.5°C 53% 1.0 mph NE1.6 kmh NE 10.0 mph16.1 kmh 29.49 in998.6 mb 0.00 in0.0 mm 0.00 in0.0 mm 0.00 in0.0 mm
02:51 PM 63.1°F17.3°C 45.7°F7.6°C 53% 1.0 mph E1.6 kmh E 10.0 mph16.1 kmh 29.49 in998.6 mb 0.00 in0.0 mm 0.00 in0.0 mm 0.00 in0.0 mm
02:46 PM 62.7°F17.1°C 45.3°F7.4°C 53% 3.0 mph N4.8 kmh N 10.0 mph16.1 kmh 29.49 in998.6 mb 0.00 in0.0 mm 0.00 in0.0 mm 0.00 in0.0 mm
02:41 PM 62.6°F17.0°C 45.2°F7.3°C 53% 4.0 mph E6.4 kmh E 9.0 mph14.5 kmh 29.49 in998.6 mb 0.00 in0.0 mm 0.00 in0.0 mm 0.00 in0.0 mm
02:36 PM 62.5°F16.9°C 45.6°F7.6°C 54% 1.0 mph ENE1.6 kmh ENE 11.0 mph17.7 kmh 29.49 in998.6 mb 0.00 in0.0 mm 0.00 in0.0 mm 0.00 in0.0 mm
02:31 PM 62.6°F17.0°C 45.7°F7.6°C 54% 2.0 mph ENE3.2 kmh ENE 11.0 mph17.7 kmh 29.49 in998.6 mb 0.00 in0.0 mm 0.00 in0.0 mm 0.00 in0.0 mm
02:26 PM 62.4°F16.9°C 45.5°F7.5°C 54% 4.0 mph E6.4 kmh E 11.0 mph17.7 kmh 29.49 in998.6 mb 0.00 in0.0 mm 0.00 in0.0 mm 0.00 in0.0 mm
02:21 PM 62.3°F16.8°C 45.4°F7.4°C 54% 3.0 mph NE4.8 kmh NE 11.0 mph17.7 kmh 29.49 in998.6 mb 0.00 in0.0 mm 0.00 in0.0 mm 0.00 in0.0 mm
02:16 PM 62.4°F16.9°C 45.5°F7.5°C 54% 2.0 mph ENE3.2 kmh ENE 9.0 mph14.5 kmh 29.49 in998.6 mb 0.00 in0.0 mm 0.00 in0.0 mm 0.00 in0.0 mm
02:11 PM 62.3°F16.8°C 45.4°F7.4°C 54% 4.0 mph E6.4 kmh E 9.0 mph14.5 kmh 29.50 in999.0 mb 0.00 in0.0 mm 0.00 in0.0 mm 0.00 in0.0 mm
02:06 PM 62.0°F16.7°C 45.6°F7.6°C 55% 5.0 mph ENE8.0 kmh ENE 10.0 mph16.1 kmh 29.50 in999.0 mb 0.00 in0.0 mm 0.00 in0.0 mm 0.00 in0.0 mm
02:01 PM 61.3°F16.3°C 45.9°F7.7°C 57% 2.0 mph NE3.2 kmh NE 10.0 mph16.1 kmh 29.50 in999.0 mb 0.00 in0.0 mm 0.00 in0.0 mm 0.00 in0.0 mm
01:56 PM 60.7°F15.9°C 46.3°F7.9°C 59% 1.0 mph NE1.6 kmh NE 10.0 mph16.1 kmh 29.50 in999.0 mb 0.00 in0.0 mm 0.00 in0.0 mm 0.00 in0.0 mm
01:51 PM 60.4°F15.8°C 45.6°F7.6°C 58% 7.0 mph NE11.3 kmh NE 10.0 mph16.1 kmh 29.50 in999.0 mb 0.00 in0.0 mm 0.00 in0.0 mm 0.00 in0.0 mm
01:46 PM 60.2°F15.7°C 45.4°F7.4°C 58% 3.0 mph NE4.8 kmh NE 10.0 mph16.1 kmh 29.51 in999.3 mb 0.00 in0.0 mm 0.00 in0.0 mm 0.00 in0.0 mm
01:41 PM 60.0°F15.6°C 44.7°F7.1°C 57% 2.0 mph NE3.2 kmh NE 12.0 mph19.3 kmh 29.51 in999.3 mb 0.00 in0.0 mm 0.00 in0.0 mm 0.00 in0.0 mm
01:36 PM 60.0°F15.6°C 44.7°F7.1°C 57% 1.0 mph NE1.6 kmh NE 12.0 mph19.3 kmh 29.51 in999.3 mb 0.00 in0.0 mm 0.00 in0.0 mm 0.00 in0.0 mm
01:31 PM 59.9°F15.5°C 44.6°F7.0°C 57% 2.0 mph NE3.2 kmh NE 13.0 mph20.9 kmh 29.51 in999.3 mb 0.00 in0.0 mm 0.00 in0.0 mm 0.00 in0.0 mm
01:26 PM 60.1°F15.6°C 44.8°F7.1°C 57% 6.0 mph NE9.7 kmh NE 13.0 mph20.9 kmh 29.51 in999.3 mb 0.00 in0.0 mm 0.00 in0.0 mm 0.00 in0.0 mm
01:21 PM 60.6°F15.9°C 43.9°F6.6°C 54% 3.0 mph NE4.8 kmh NE 13.0 mph20.9 kmh 29.51 in999.3 mb 0.00 in0.0 mm 0.00 in0.0 mm 0.00 in0.0 mm
01:16 PM 61.0°F16.1°C 44.2°F6.8°C 54% 3.0 mph NE4.8 kmh NE 13.0 mph20.9 kmh 29.51 in999.3 mb 0.00 in0.0 mm 0.00 in0.0 mm 0.00 in0.0 mm
01:11 PM 61.0°F16.1°C 45.2°F7.3°C 56% 3.0 mph NE4.8 kmh NE 12.0 mph19.3 kmh 29.51 in999.3 mb 0.00 in0.0 mm 0.00 in0.0 mm 0.00 in0.0 mm
01:06 PM 61.2°F16.2°C 45.4°F7.4°C 56% 5.0 mph NE8.0 kmh NE 12.0 mph19.3 kmh 29.51 in999.3 mb 0.00 in0.0 mm 0.00 in0.0 mm 0.00 in0.0 mm
01:01 PM 61.4°F16.3°C 44.6°F7.0°C 54% 5.0 mph NE8.0 kmh NE 10.0 mph16.1 kmh 29.51 in999.3 mb 0.00 in0.0 mm 0.00 in0.0 mm 0.00 in0.0 mm
12:56 PM 61.2°F16.2°C 44.4°F6.9°C 54% 1.0 mph E1.6 kmh E 10.0 mph16.1 kmh 29.52 in999.7 mb 0.00 in0.0 mm 0.00 in0.0 mm 0.00 in0.0 mm
12:51 PM 61.0°F16.1°C 44.7°F7.1°C 55% 3.0 mph 4.8 kmh 10.0 mph16.1 kmh 29.52 in999.7 mb 0.00 in0.0 mm 0.00 in0.0 mm 0.00 in0.0 mm
12:46 PM 60.9°F16.1°C 45.1°F7.3°C 56% 2.0 mph E3.2 kmh E 10.0 mph16.1 kmh 29.52 in999.7 mb 0.00 in0.0 mm 0.00 in0.0 mm 0.00 in0.0 mm
12:41 PM 60.7°F15.9°C 44.4°F6.9°C 55% 6.0 mph NNE9.7 kmh NNE 10.0 mph16.1 kmh 29.52 in999.7 mb 0.00 in0.0 mm 0.00 in0.0 mm 0.00 in0.0 mm
12:36 PM 61.4°F16.3°C 44.6°F7.0°C 54% 10.0 mph NNE16.1 kmh NNE 10.0 mph16.1 kmh 29.52 in999.7 mb 0.00 in0.0 mm 0.00 in0.0 mm 0.00 in0.0 mm
12:31 PM 61.6°F16.4°C 44.8°F7.1°C 54% 3.0 mph NNE4.8 kmh NNE 10.0 mph16.1 kmh 29.52 in999.7 mb 0.00 in0.0 mm 0.00 in0.0 mm 0.00 in0.0 mm
12:26 PM 61.9°F16.6°C 44.6°F7.0°C 53% 4.0 mph ENE6.4 kmh ENE 10.0 mph16.1 kmh 29.52 in999.7 mb 0.00 in0.0 mm 0.00 in0.0 mm 0.00 in0.0 mm
12:21 PM 62.3°F16.8°C 43.9°F6.6°C 51% 3.0 mph NE4.8 kmh NE 10.0 mph16.1 kmh 29.52 in999.7 mb 0.00 in0.0 mm 0.00 in0.0 mm 0.00 in0.0 mm
12:16 PM 63.1°F17.3°C 44.2°F6.8°C 50% 6.0 mph NNE9.7 kmh NNE 10.0 mph16.1 kmh 29.52 in999.7 mb 0.00 in0.0 mm 0.00 in0.0 mm 0.00 in0.0 mm
12:11 PM 63.4°F17.4°C 43.9°F6.6°C 49% 3.0 mph ENE4.8 kmh ENE 10.0 mph16.1 kmh 29.52 in999.7 mb 0.00 in0.0 mm 0.00 in0.0 mm 0.00 in0.0 mm
12:06 PM 63.2°F17.3°C 44.2°F6.8°C 50% 3.0 mph NNE4.8 kmh NNE 10.0 mph16.1 kmh 29.52 in999.7 mb 0.00 in0.0 mm 0.00 in0.0 mm 0.00 in0.0 mm
12:01 PM 63.0°F17.2°C 44.6°F7.0°C 51% 4.0 mph NE6.4 kmh NE 10.0 mph16.1 kmh 29.53 in1000.0 mb 0.00 in0.0 mm 0.00 in0.0 mm 0.00 in0.0 mm
11:56 AM 62.9°F17.2°C 44.5°F6.9°C 51% 3.0 mph NE4.8 kmh NE 10.0 mph16.1 kmh 29.52 in999.7 mb 0.00 in0.0 mm 0.00 in0.0 mm 0.00 in0.0 mm
11:51 AM 62.8°F17.1°C 43.9°F6.6°C 50% 2.0 mph ENE3.2 kmh ENE 9.0 mph14.5 kmh 29.53 in1000.0 mb 0.00 in0.0 mm 0.00 in0.0 mm 0.00 in0.0 mm
11:46 AM 63.2°F17.3°C 44.8°F7.1°C 51% 4.0 mph NE6.4 kmh NE 9.0 mph14.5 kmh 29.53 in1000.0 mb 0.00 in0.0 mm 0.00 in0.0 mm 0.00 in0.0 mm
11:41 AM 63.5°F17.5°C 44.5°F6.9°C 50% 4.0 mph NE6.4 kmh NE 9.0 mph14.5 kmh 29.53 in1000.0 mb 0.00 in0.0 mm 0.00 in0.0 mm 0.00 in0.0 mm
11:36 AM 63.6°F17.6°C 44.6°F7.0°C 50% 3.0 mph NE4.8 kmh NE 9.0 mph14.5 kmh 29.53 in1000.0 mb 0.00 in0.0 mm 0.00 in0.0 mm 0.00 in0.0 mm
11:31 AM 63.7°F17.6°C 44.2°F6.8°C 49% 4.0 mph NE6.4 kmh NE 9.0 mph14.5 kmh 29.53 in1000.0 mb 0.00 in0.0 mm 0.00 in0.0 mm 0.00 in0.0 mm
11:26 AM 63.4°F17.4°C 43.9°F6.6°C 49% 1.0 mph E1.6 kmh E 5.0 mph8.0 kmh 29.53 in1000.0 mb 0.00 in0.0 mm 0.00 in0.0 mm 0.00 in0.0 mm
11:21 AM 63.3°F17.4°C 44.3°F6.8°C 50% 1.0 mph NE1.6 kmh NE 5.0 mph8.0 kmh 29.53 in1000.0 mb 0.00 in0.0 mm 0.00 in0.0 mm 0.00 in0.0 mm
11:16 AM 63.0°F17.2°C 43.5°F6.4°C 49% 1.0 mph NE1.6 kmh NE 3.0 mph4.8 kmh 29.54 in1000.3 mb 0.00 in0.0 mm 0.00 in0.0 mm 0.00 in0.0 mm
11:11 AM 62.9°F17.2°C 43.4°F6.3°C 49% 1.0 mph NE1.6 kmh NE 3.0 mph4.8 kmh 29.54 in1000.3 mb 0.00 in0.0 mm 0.00 in0.0 mm 0.00 in0.0 mm
11:06 AM 62.5°F16.9°C 42.5°F5.8°C 48% 1.0 mph E1.6 kmh E 4.0 mph6.4 kmh 29.54 in1000.3 mb 0.00 in0.0 mm 0.00 in0.0 mm 0.00 in0.0 mm
11:01 AM 62.1°F16.7°C 43.2°F6.2°C 50% 1.0 mph NE1.6 kmh NE 4.0 mph6.4 kmh 29.54 in1000.3 mb 0.00 in0.0 mm 0.00 in0.0 mm 0.00 in0.0 mm
10:56 AM 61.8°F16.6°C 43.5°F6.4°C 51% 2.0 mph ENE3.2 kmh ENE 4.0 mph6.4 kmh 29.54 in1000.3 mb 0.00 in0.0 mm 0.00 in0.0 mm 0.00 in0.0 mm
10:51 AM 61.5°F16.4°C 42.2°F5.7°C 49% Calm Calm 4.0 mph6.4 kmh 29.54 in1000.3 mb 0.00 in0.0 mm 0.00 in0.0 mm 0.00 in0.0 mm
10:46 AM 61.1°F16.2°C 42.3°F5.7°C 50% Calm Calm 3.0 mph4.8 kmh 29.54 in1000.3 mb 0.00 in0.0 mm 0.00 in0.0 mm 0.00 in0.0 mm
10:41 AM 60.7°F15.9°C 41.4°F5.2°C 49% Calm Calm 3.0 mph4.8 kmh 29.53 in1000.0 mb 0.00 in0.0 mm 0.00 in0.0 mm 0.00 in0.0 mm
10:36 AM 60.4°F15.8°C 42.2°F5.7°C 51% 1.0 mph NE1.6 kmh NE 3.0 mph4.8 kmh 29.54 in1000.3 mb 0.00 in0.0 mm 0.00 in0.0 mm 0.00 in0.0 mm
10:31 AM 60.1°F15.6°C 41.9°F5.5°C 51% 2.0 mph E3.2 kmh E 3.0 mph4.8 kmh 29.53 in1000.0 mb 0.00 in0.0 mm 0.00 in0.0 mm 0.00 in0.0 mm
10:26 AM 59.9°F15.5°C 42.2°F5.7°C 52% Calm Calm 2.0 mph3.2 kmh 29.54 in1000.3 mb 0.00 in0.0 mm 0.00 in0.0 mm 0.00 in0.0 mm
10:21 AM 59.7°F15.4°C 41.5°F5.3°C 51% Calm Calm 3.0 mph4.8 kmh 29.53 in1000.0 mb 0.00 in0.0 mm 0.00 in0.0 mm 0.00 in0.0 mm
10:16 AM 59.5°F15.3°C 41.4°F5.2°C 51% 1.0 mph ESE1.6 kmh ESE 3.0 mph4.8 kmh 29.53 in1000.0 mb 0.00 in0.0 mm 0.00 in0.0 mm 0.00 in0.0 mm
10:11 AM 59.3°F15.2°C 41.2°F5.1°C 51% 2.0 mph ESE3.2 kmh ESE 3.0 mph4.8 kmh 29.53 in1000.0 mb 0.00 in0.0 mm 0.00 in0.0 mm 0.00 in0.0 mm
10:06 AM 59.0°F15.0°C 41.4°F5.2°C 52% 1.0 mph ESE1.6 kmh ESE 3.0 mph4.8 kmh 29.53 in1000.0 mb 0.00 in0.0 mm 0.00 in0.0 mm 0.00 in0.0 mm
10:01 AM 58.8°F14.9°C 41.2°F5.1°C 52% 2.0 mph ESE3.2 kmh ESE 3.0 mph4.8 kmh 29.53 in1000.0 mb 0.00 in0.0 mm 0.00 in0.0 mm 0.00 in0.0 mm
09:56 AM 58.6°F14.8°C 41.0°F5.0°C 52% 1.0 mph ESE1.6 kmh ESE 3.0 mph4.8 kmh 29.53 in1000.0 mb 0.00 in0.0 mm 0.00 in0.0 mm 0.00 in0.0 mm
09:51 AM 58.3°F14.6°C 40.8°F4.9°C 52% 2.0 mph ESE3.2 kmh ESE 2.0 mph3.2 kmh 29.53 in1000.0 mb 0.00 in0.0 mm 0.00 in0.0 mm 0.00 in0.0 mm
09:46 AM 58.2°F14.6°C 40.2°F4.6°C 51% 1.0 mph ESE1.6 kmh ESE 3.0 mph4.8 kmh 29.53 in1000.0 mb 0.00 in0.0 mm 0.00 in0.0 mm 0.00 in0.0 mm
09:41 AM 58.0°F14.4°C 40.5°F4.7°C 52% 1.0 mph ESE1.6 kmh ESE 3.0 mph4.8 kmh 29.53 in1000.0 mb 0.00 in0.0 mm 0.00 in0.0 mm 0.00 in0.0 mm
09:36 AM 57.9°F14.4°C 40.9°F4.9°C 53% 1.0 mph ESE1.6 kmh ESE 3.0 mph4.8 kmh 29.54 in1000.3 mb 0.00 in0.0 mm 0.00 in0.0 mm 0.00 in0.0 mm
09:31 AM 57.7°F14.3°C 40.2°F4.6°C 52% 2.0 mph ESE3.2 kmh ESE 3.0 mph4.8 kmh 29.53 in1000.0 mb 0.00 in0.0 mm 0.00 in0.0 mm 0.00 in0.0 mm
09:26 AM 57.6°F14.2°C 40.1°F4.5°C 52% 2.0 mph ESE3.2 kmh ESE 3.0 mph4.8 kmh 29.54 in1000.3 mb 0.00 in0.0 mm 0.00 in0.0 mm 0.00 in0.0 mm
09:21 AM 57.5°F14.2°C 40.5°F4.7°C 53% 2.0 mph ESE3.2 kmh ESE 3.0 mph4.8 kmh 29.54 in1000.3 mb 0.00 in0.0 mm 0.00 in0.0 mm 0.00 in0.0 mm
09:16 AM 57.4°F14.1°C 40.4°F4.7°C 53% 2.0 mph ESE3.2 kmh ESE 3.0 mph4.8 kmh 29.54 in1000.3 mb 0.00 in0.0 mm 0.00 in0.0 mm 0.00 in0.0 mm
09:11 AM 57.5°F14.2°C 40.0°F4.4°C 52% 2.0 mph ESE3.2 kmh ESE 3.0 mph4.8 kmh 29.54 in1000.3 mb 0.00 in0.0 mm 0.00 in0.0 mm 0.00 in0.0 mm
09:06 AM 57.5°F14.2°C 40.5°F4.7°C 53% 2.0 mph ESE3.2 kmh ESE 3.0 mph4.8 kmh 29.54 in1000.3 mb 0.00 in0.0 mm 0.00 in0.0 mm 0.00 in0.0 mm
09:01 AM 57.5°F14.2°C 40.0°F4.4°C 52% 1.0 mph ESE1.6 kmh ESE 3.0 mph4.8 kmh 29.54 in1000.3 mb 0.00 in0.0 mm 0.00 in0.0 mm 0.00 in0.0 mm
08:56 AM 57.5°F14.2°C 40.0°F4.4°C 52% 2.0 mph ESE3.2 kmh ESE 3.0 mph4.8 kmh 29.54 in1000.3 mb 0.00 in0.0 mm 0.00 in0.0 mm 0.00 in0.0 mm
08:51 AM 57.3°F14.1°C 40.3°F4.6°C 53% 2.0 mph E3.2 kmh E 3.0 mph4.8 kmh 29.54 in1000.3 mb 0.00 in0.0 mm 0.00 in0.0 mm 0.00 in0.0 mm
08:46 AM 57.0°F13.9°C 40.0°F4.4°C 53% 2.0 mph E3.2 kmh E 3.0 mph4.8 kmh 29.54 in1000.3 mb 0.00 in0.0 mm 0.00 in0.0 mm 0.00 in0.0 mm
08:41 AM 56.7°F13.7°C 40.2°F4.6°C 54% 2.0 mph E3.2 kmh E 3.0 mph4.8 kmh 29.54 in1000.3 mb 0.00 in0.0 mm 0.00 in0.0 mm 0.00 in0.0 mm
08:36 AM 56.5°F13.6°C 39.6°F4.2°C 53% 2.0 mph E3.2 kmh E 3.0 mph4.8 kmh 29.54 in1000.3 mb 0.00 in0.0 mm 0.00 in0.0 mm 0.00 in0.0 mm
08:31 AM 56.1°F13.4°C 40.2°F4.6°C 55% 1.0 mph E1.6 kmh E 3.0 mph4.8 kmh 29.54 in1000.3 mb 0.00 in0.0 mm 0.00 in0.0 mm 0.00 in0.0 mm
08:26 AM 55.8°F13.2°C 39.9°F4.4°C 55% 1.0 mph E1.6 kmh E 3.0 mph4.8 kmh 29.54 in1000.3 mb 0.00 in0.0 mm 0.00 in0.0 mm 0.00 in0.0 mm
08:21 AM 55.5°F13.1°C 40.5°F4.7°C 57% 2.0 mph E3.2 kmh E 3.0 mph4.8 kmh 29.54 in1000.3 mb 0.00 in0.0 mm 0.00 in0.0 mm 0.00 in0.0 mm
08:16 AM 55.3°F12.9°C 39.9°F4.4°C 56% 1.0 mph E1.6 kmh E 3.0 mph4.8 kmh 29.54 in1000.3 mb 0.00 in0.0 mm 0.00 in0.0 mm 0.00 in0.0 mm
08:11 AM 55.2°F12.9°C 40.2°F4.6°C 57% 1.0 mph E1.6 kmh E 3.0 mph4.8 kmh 29.54 in1000.3 mb 0.00 in0.0 mm 0.00 in0.0 mm 0.00 in0.0 mm
08:06 AM 55.0°F12.8°C 40.0°F4.4°C 57% 1.0 mph E1.6 kmh E 3.0 mph4.8 kmh 29.54 in1000.3 mb 0.00 in0.0 mm 0.00 in0.0 mm 0.00 in0.0 mm
08:01 AM 55.0°F12.8°C 39.6°F4.2°C 56% 2.0 mph E3.2 kmh E 3.0 mph4.8 kmh 29.54 in1000.3 mb 0.00 in0.0 mm 0.00 in0.0 mm 0.00 in0.0 mm
07:56 AM 54.8°F12.7°C 39.4°F4.1°C 56% 1.0 mph E1.6 kmh E 2.0 mph3.2 kmh 29.54 in1000.3 mb 0.00 in0.0 mm 0.00 in0.0 mm 0.00 in0.0 mm
07:51 AM 54.7°F12.6°C 39.8°F4.3°C 57% 1.0 mph E1.6 kmh E 2.0 mph3.2 kmh 29.55 in1000.7 mb 0.00 in0.0 mm 0.00 in0.0 mm 0.00 in0.0 mm
07:46 AM 54.5°F12.5°C 39.6°F4.2°C 57% Calm Calm 2.0 mph3.2 kmh 29.54 in1000.3 mb 0.00 in0.0 mm 0.00 in0.0 mm 0.00 in0.0 mm
07:41 AM 54.3°F12.4°C 39.4°F4.1°C 57% 1.0 mph E1.6 kmh E 3.0 mph4.8 kmh 29.55 in1000.7 mb 0.00 in0.0 mm 0.00 in0.0 mm 0.00 in0.0 mm
07:36 AM 54.2°F12.3°C 39.3°F4.1°C 57% 1.0 mph E1.6 kmh E 3.0 mph4.8 kmh 29.54 in1000.3 mb 0.00 in0.0 mm 0.00 in0.0 mm 0.00 in0.0 mm
07:31 AM 54.1°F12.3°C 39.2°F4.0°C 57% 1.0 mph E1.6 kmh E 3.0 mph4.8 kmh 29.54 in1000.3 mb 0.00 in0.0 mm 0.00 in0.0 mm 0.00 in0.0 mm
07:26 AM 54.0°F12.2°C 39.6°F4.2°C 58% 1.0 mph E1.6 kmh E 3.0 mph4.8 kmh 29.54 in1000.3 mb 0.00 in0.0 mm 0.00 in0.0 mm 0.00 in0.0 mm
07:21 AM 53.8°F12.1°C 39.4°F4.1°C 58% 1.0 mph E1.6 kmh E 2.0 mph3.2 kmh 29.54 in1000.3 mb 0.00 in0.0 mm 0.00 in0.0 mm 0.00 in0.0 mm
07:16 AM 53.7°F12.1°C 39.3°F4.1°C 58% Calm Calm 2.0 mph3.2 kmh 29.55 in1000.7 mb 0.00 in0.0 mm 0.00 in0.0 mm 0.00 in0.0 mm
07:11 AM 53.6°F12.0°C 39.2°F4.0°C 58% 1.0 mph E1.6 kmh E 2.0 mph3.2 kmh 29.54 in1000.3 mb 0.00 in0.0 mm 0.00 in0.0 mm 0.00 in0.0 mm
07:06 AM 53.4°F11.9°C 39.9°F4.4°C 60% 1.0 mph ENE1.6 kmh ENE 2.0 mph3.2 kmh 29.54 in1000.3 mb 0.00 in0.0 mm 0.00 in0.0 mm 0.00 in0.0 mm
06:59 AM 53.2°F11.8°C 39.7°F4.3°C 60% 1.0 mph ENE1.6 kmh ENE 4.0 mph6.4 kmh 29.54 in1000.3 mb 0.00 in0.0 mm 0.00 in0.0 mm 0.00 in0.0 mm
06:54 AM 53.0°F11.7°C 39.5°F4.2°C 60% 1.0 mph NE1.6 kmh NE 4.0 mph6.4 kmh 29.55 in1000.7 mb 0.00 in0.0 mm 0.00 in0.0 mm 0.00 in0.0 mm
06:49 AM 52.9°F11.6°C 39.4°F4.1°C 60% Calm Calm 4.0 mph6.4 kmh 29.55 in1000.7 mb 0.00 in0.0 mm 0.00 in0.0 mm 0.00 in0.0 mm
06:44 AM 52.7°F11.5°C 39.2°F4.0°C 60% 1.0 mph NE1.6 kmh NE 4.0 mph6.4 kmh 29.55 in1000.7 mb 0.00 in0.0 mm 0.00 in0.0 mm 0.00 in0.0 mm
06:39 AM 52.5°F11.4°C 39.0°F3.9°C 60% 1.0 mph ENE1.6 kmh ENE 3.0 mph4.8 kmh 29.56 in1001.0 mb 0.00 in0.0 mm 0.00 in0.0 mm 0.00 in0.0 mm
06:34 AM 52.3°F11.3°C 38.8°F3.8°C 60% 1.0 mph ENE1.6 kmh ENE 3.0 mph4.8 kmh 29.55 in1000.7 mb 0.00 in0.0 mm 0.00 in0.0 mm 0.00 in0.0 mm
06:29 AM 52.2°F11.2°C 38.7°F3.7°C 60% Calm Calm 2.0 mph3.2 kmh 29.55 in1000.7 mb 0.00 in0.0 mm 0.00 in0.0 mm 0.00 in0.0 mm
06:24 AM 52.0°F11.1°C 38.5°F3.6°C 60% 1.0 mph ENE1.6 kmh ENE 2.0 mph3.2 kmh 29.55 in1000.7 mb 0.00 in0.0 mm 0.00 in0.0 mm 0.00 in0.0 mm
06:19 AM 51.9°F11.1°C 38.5°F3.6°C 60% Calm Calm 3.0 mph4.8 kmh 29.55 in1000.7 mb 0.00 in0.0 mm 0.00 in0.0 mm 0.00 in0.0 mm
06:14 AM 51.9°F11.1°C 38.5°F3.6°C 60% 1.0 mph ENE1.6 kmh ENE 2.0 mph3.2 kmh 29.55 in1000.7 mb 0.00 in0.0 mm 0.00 in0.0 mm 0.00 in0.0 mm
06:09 AM 51.9°F11.1°C 38.5°F3.6°C 60% Calm Calm 3.0 mph4.8 kmh 29.55 in1000.7 mb 0.00 in0.0 mm 0.00 in0.0 mm 0.00 in0.0 mm
06:04 AM 51.9°F11.1°C 38.5°F3.6°C 60% 1.0 mph ENE1.6 kmh ENE 3.0 mph4.8 kmh 29.55 in1000.7 mb 0.00 in0.0 mm 0.00 in0.0 mm 0.00 in0.0 mm
05:59 AM 52.0°F11.1°C 38.1°F3.4°C 59% Calm Calm 2.0 mph3.2 kmh 29.55 in1000.7 mb 0.00 in0.0 mm 0.00 in0.0 mm 0.00 in0.0 mm
05:54 AM 52.0°F11.1°C 38.1°F3.4°C 59% 1.0 mph ENE1.6 kmh ENE 2.0 mph3.2 kmh 29.55 in1000.7 mb 0.00 in0.0 mm 0.00 in0.0 mm 0.00 in0.0 mm
05:49 AM 51.9°F11.1°C 38.0°F3.3°C 59% Calm Calm 1.0 mph1.6 kmh 29.55 in1000.7 mb 0.00 in0.0 mm 0.00 in0.0 mm 0.00 in0.0 mm
05:44 AM 51.8°F11.0°C 37.9°F3.3°C 59% Calm Calm -- 29.55 in1000.7 mb 0.00 in0.0 mm 0.00 in0.0 mm 0.00 in0.0 mm
05:39 AM 51.8°F11.0°C 37.9°F3.3°C 59% Calm Calm -- 29.55 in1000.7 mb 0.00 in0.0 mm 0.00 in0.0 mm 0.00 in0.0 mm
05:34 AM 51.8°F11.0°C 37.9°F3.3°C 59% Calm Calm 2.0 mph3.2 kmh 29.55 in1000.7 mb 0.00 in0.0 mm 0.00 in0.0 mm 0.00 in0.0 mm
05:29 AM 51.8°F11.0°C 37.9°F3.3°C 59% Calm Calm 2.0 mph3.2 kmh 29.55 in1000.7 mb 0.00 in0.0 mm 0.00 in0.0 mm 0.00 in0.0 mm
05:24 AM 51.6°F10.9°C 37.7°F3.2°C 59% Calm Calm 2.0 mph3.2 kmh 29.55 in1000.7 mb 0.00 in0.0 mm 0.00 in0.0 mm 0.00 in0.0 mm
05:19 AM 51.3°F10.7°C 37.9°F3.3°C 60% 1.0 mph ENE1.6 kmh ENE 2.0 mph3.2 kmh 29.55 in1000.7 mb 0.00 in0.0 mm 0.00 in0.0 mm 0.00 in0.0 mm
05:14 AM 50.9°F10.5°C 37.5°F3.1°C 60% 1.0 mph ENE1.6 kmh ENE 2.0 mph3.2 kmh 29.55 in1000.7 mb 0.00 in0.0 mm 0.00 in0.0 mm 0.00 in0.0 mm
05:09 AM 50.6°F10.3°C 37.7°F3.2°C 61% Calm Calm 1.0 mph1.6 kmh 29.55 in1000.7 mb 0.00 in0.0 mm 0.00 in0.0 mm 0.00 in0.0 mm
05:04 AM 50.4°F10.2°C 37.5°F3.1°C 61% Calm Calm 1.0 mph1.6 kmh 29.55 in1000.7 mb 0.00 in0.0 mm 0.00 in0.0 mm 0.00 in0.0 mm
04:59 AM 50.3°F10.2°C 37.4°F3.0°C 61% Calm Calm 1.0 mph1.6 kmh 29.55 in1000.7 mb 0.00 in0.0 mm 0.00 in0.0 mm 0.00 in0.0 mm
04:54 AM 50.3°F10.2°C 37.4°F3.0°C 61% Calm Calm 1.0 mph1.6 kmh 29.55 in1000.7 mb 0.00 in0.0 mm 0.00 in0.0 mm 0.00 in0.0 mm
04:49 AM 50.2°F10.1°C 37.3°F2.9°C 61% Calm Calm -- 29.56 in1001.0 mb 0.00 in0.0 mm 0.00 in0.0 mm 0.00 in0.0 mm
04:44 AM 50.1°F10.1°C 37.6°F3.1°C 62% Calm Calm 3.0 mph4.8 kmh 29.56 in1001.0 mb 0.00 in0.0 mm 0.00 in0.0 mm 0.00 in0.0 mm
04:39 AM 50.0°F10.0°C 37.5°F3.1°C 62% 2.0 mph ENE3.2 kmh ENE 3.0 mph4.8 kmh 29.56 in1001.0 mb 0.00 in0.0 mm 0.00 in0.0 mm 0.00 in0.0 mm
04:34 AM 49.9°F9.9°C 37.4°F3.0°C 62% Calm Calm 2.0 mph3.2 kmh 29.56 in1001.0 mb 0.00 in0.0 mm 0.00 in0.0 mm 0.00 in0.0 mm
04:29 AM 49.9°F9.9°C 37.4°F3.0°C 62% 2.0 mph ESE3.2 kmh ESE 2.0 mph3.2 kmh 29.56 in1001.0 mb 0.00 in0.0 mm 0.00 in0.0 mm 0.00 in0.0 mm
04:24 AM 50.0°F10.0°C 37.5°F3.1°C 62% 1.0 mph SE1.6 kmh SE 1.0 mph1.6 kmh 29.56 in1001.0 mb 0.00 in0.0 mm 0.00 in0.0 mm 0.00 in0.0 mm
04:19 AM 50.2°F10.1°C 37.7°F3.2°C 62% Calm Calm 1.0 mph1.6 kmh 29.56 in1001.0 mb 0.00 in0.0 mm 0.00 in0.0 mm 0.00 in0.0 mm
04:14 AM 50.4°F10.2°C 37.5°F3.1°C 61% Calm Calm 1.0 mph1.6 kmh 29.56 in1001.0 mb 0.00 in0.0 mm 0.00 in0.0 mm 0.00 in0.0 mm
04:09 AM 50.5°F10.3°C 37.6°F3.1°C 61% Calm Calm -- 29.56 in1001.0 mb 0.00 in0.0 mm 0.00 in0.0 mm 0.00 in0.0 mm
04:04 AM 50.8°F10.4°C 37.8°F3.2°C 61% Calm Calm 1.0 mph1.6 kmh 29.56 in1001.0 mb 0.00 in0.0 mm 0.00 in0.0 mm 0.00 in0.0 mm
03:59 AM 50.9°F10.5°C 37.5°F3.1°C 60% Calm Calm 1.0 mph1.6 kmh 29.56 in1001.0 mb 0.00 in0.0 mm 0.00 in0.0 mm 0.00 in0.0 mm
03:54 AM 51.1°F10.6°C 37.7°F3.2°C 60% Calm Calm -- 29.56 in1001.0 mb 0.00 in0.0 mm 0.00 in0.0 mm 0.00 in0.0 mm
03:49 AM 51.1°F10.6°C 37.7°F3.2°C 60% Calm Calm -- 29.56 in1001.0 mb 0.00 in0.0 mm 0.00 in0.0 mm 0.00 in0.0 mm
03:44 AM 51.1°F10.6°C 37.7°F3.2°C 60% Calm Calm -- 29.56 in1001.0 mb 0.00 in0.0 mm 0.00 in0.0 mm 0.00 in0.0 mm
03:39 AM 51.1°F10.6°C 37.7°F3.2°C 60% Calm Calm -- 29.56 in1001.0 mb 0.00 in0.0 mm 0.00 in0.0 mm 0.00 in0.0 mm
03:34 AM 51.1°F10.6°C 37.7°F3.2°C 60% Calm Calm -- 29.56 in1001.0 mb 0.00 in0.0 mm 0.00 in0.0 mm 0.00 in0.0 mm
03:29 AM 51.2°F10.7°C 37.8°F3.2°C 60% Calm Calm -- 29.56 in1001.0 mb 0.00 in0.0 mm 0.00 in0.0 mm 0.00 in0.0 mm
03:24 AM 51.3°F10.7°C 37.9°F3.3°C 60% Calm Calm -- 29.56 in1001.0 mb 0.00 in0.0 mm 0.00 in0.0 mm 0.00 in0.0 mm
03:19 AM 51.2°F10.7°C 37.8°F3.2°C 60% Calm Calm -- 29.56 in1001.0 mb 0.00 in0.0 mm 0.00 in0.0 mm 0.00 in0.0 mm
03:14 AM 51.2°F10.7°C 37.8°F3.2°C 60% Calm Calm -- 29.56 in1001.0 mb 0.00 in0.0 mm 0.00 in0.0 mm 0.00 in0.0 mm
03:09 AM 51.3°F10.7°C 37.9°F3.3°C 60% Calm Calm -- 29.57 in1001.4 mb 0.00 in0.0 mm 0.00 in0.0 mm 0.00 in0.0 mm
03:04 AM 51.4°F10.8°C 38.0°F3.3°C 60% Calm Calm -- 29.57 in1001.4 mb 0.00 in0.0 mm 0.00 in0.0 mm 0.00 in0.0 mm
02:59 AM 51.5°F10.8°C 38.1°F3.4°C 60% Calm Calm -- 29.57 in1001.4 mb 0.00 in0.0 mm 0.00 in0.0 mm 0.00 in0.0 mm
02:54 AM 51.6°F10.9°C 38.6°F3.7°C 61% Calm Calm -- 29.57 in1001.4 mb 0.00 in0.0 mm 0.00 in0.0 mm 0.00 in0.0 mm
02:49 AM 51.6°F10.9°C 38.6°F3.7°C 61% Calm Calm -- 29.57 in1001.4 mb 0.00 in0.0 mm 0.00 in0.0 mm 0.00 in0.0 mm
02:44 AM 51.6°F10.9°C 38.6°F3.7°C 61% Calm Calm -- 29.57 in1001.4 mb 0.00 in0.0 mm 0.00 in0.0 mm 0.00 in0.0 mm
02:39 AM 51.6°F10.9°C 38.6°F3.7°C 61% Calm Calm -- 29.58 in1001.7 mb 0.00 in0.0 mm 0.00 in0.0 mm 0.00 in0.0 mm
02:34 AM 51.5°F10.8°C 38.5°F3.6°C 61% Calm Calm -- 29.58 in1001.7 mb 0.00 in0.0 mm 0.00 in0.0 mm 0.00 in0.0 mm
02:29 AM 51.5°F10.8°C 38.5°F3.6°C 61% 1.0 mph SE1.6 kmh SE 1.0 mph1.6 kmh 29.58 in1001.7 mb 0.00 in0.0 mm 0.00 in0.0 mm 0.00 in0.0 mm
02:24 AM 51.6°F10.9°C 38.6°F3.7°C 61% 1.0 mph SE1.6 kmh SE 1.0 mph1.6 kmh 29.58 in1001.7 mb 0.00 in0.0 mm 0.00 in0.0 mm 0.00 in0.0 mm
02:19 AM 51.8°F11.0°C 38.8°F3.8°C 61% Calm Calm -- 29.58 in1001.7 mb 0.00 in0.0 mm 0.00 in0.0 mm 0.00 in0.0 mm
02:14 AM 52.1°F11.2°C 39.1°F3.9°C 61% Calm Calm -- 29.57 in1001.4 mb 0.00 in0.0 mm 0.00 in0.0 mm 0.00 in0.0 mm
02:09 AM 52.2°F11.2°C 38.7°F3.7°C 60% 1.0 mph SE1.6 kmh SE 2.0 mph3.2 kmh 29.57 in1001.4 mb 0.00 in0.0 mm 0.00 in0.0 mm 0.00 in0.0 mm
02:04 AM 52.3°F11.3°C 38.8°F3.8°C 60% 1.0 mph SE1.6 kmh SE 2.0 mph3.2 kmh 29.58 in1001.7 mb 0.00 in0.0 mm 0.00 in0.0 mm 0.00 in0.0 mm
01:59 AM 52.5°F11.4°C 39.0°F3.9°C 60% 1.0 mph SE1.6 kmh SE 2.0 mph3.2 kmh 29.58 in1001.7 mb 0.00 in0.0 mm 0.00 in0.0 mm 0.00 in0.0 mm
01:54 AM 52.6°F11.4°C 39.1°F3.9°C 60% Calm Calm 1.0 mph1.6 kmh 29.58 in1001.7 mb 0.00 in0.0 mm 0.00 in0.0 mm 0.00 in0.0 mm
01:49 AM 52.7°F11.5°C 39.2°F4.0°C 60% 1.0 mph SE1.6 kmh SE 2.0 mph3.2 kmh 29.58 in1001.7 mb 0.00 in0.0 mm 0.00 in0.0 mm 0.00 in0.0 mm
01:44 AM 52.9°F11.6°C 39.0°F3.9°C 59% 1.0 mph SE1.6 kmh SE 2.0 mph3.2 kmh 29.59 in1002.0 mb 0.00 in0.0 mm 0.00 in0.0 mm 0.00 in0.0 mm
01:39 AM 53.0°F11.7°C 39.1°F3.9°C 59% 1.0 mph SE1.6 kmh SE 2.0 mph3.2 kmh 29.58 in1001.7 mb 0.00 in0.0 mm 0.00 in0.0 mm 0.00 in0.0 mm
01:34 AM 53.0°F11.7°C 39.1°F3.9°C 59% 2.0 mph SE3.2 kmh SE 2.0 mph3.2 kmh 29.59 in1002.0 mb 0.00 in0.0 mm 0.00 in0.0 mm 0.00 in0.0 mm
01:29 AM 53.2°F11.8°C 39.2°F4.0°C 59% 2.0 mph SE3.2 kmh SE 2.0 mph3.2 kmh 29.59 in1002.0 mb 0.00 in0.0 mm 0.00 in0.0 mm 0.00 in0.0 mm
01:24 AM 53.3°F11.8°C 39.3°F4.1°C 59% 1.0 mph SE1.6 kmh SE 2.0 mph3.2 kmh 29.59 in1002.0 mb 0.00 in0.0 mm 0.00 in0.0 mm 0.00 in0.0 mm
01:19 AM 53.6°F12.0°C 39.2°F4.0°C 58% 1.0 mph SE1.6 kmh SE 2.0 mph3.2 kmh 29.59 in1002.0 mb 0.00 in0.0 mm 0.00 in0.0 mm 0.00 in0.0 mm
01:14 AM 53.9°F12.2°C 39.0°F3.9°C 57% 2.0 mph SE3.2 kmh SE 2.0 mph3.2 kmh 29.60 in1002.4 mb 0.00 in0.0 mm 0.00 in0.0 mm 0.00 in0.0 mm
01:09 AM 54.2°F12.3°C 39.3°F4.1°C 57% 1.0 mph SE1.6 kmh SE 2.0 mph3.2 kmh 29.60 in1002.4 mb 0.00 in0.0 mm 0.00 in0.0 mm 0.00 in0.0 mm
01:04 AM 54.5°F12.5°C 39.1°F3.9°C 56% 2.0 mph SE3.2 kmh SE 2.0 mph3.2 kmh 29.60 in1002.4 mb 0.00 in0.0 mm 0.00 in0.0 mm 0.00 in0.0 mm
12:59 AM 54.6°F12.6°C 39.2°F4.0°C 56% 2.0 mph SE3.2 kmh SE 2.0 mph3.2 kmh 29.60 in1002.4 mb 0.00 in0.0 mm 0.00 in0.0 mm 0.00 in0.0 mm
12:54 AM 54.6°F12.6°C 39.2°F4.0°C 56% 1.0 mph SE1.6 kmh SE 2.0 mph3.2 kmh 29.59 in1002.0 mb 0.00 in0.0 mm 0.00 in0.0 mm 0.00 in0.0 mm
12:49 AM 54.6°F12.6°C 38.8°F3.8°C 55% 1.0 mph SE1.6 kmh SE 2.0 mph3.2 kmh 29.60 in1002.4 mb 0.00 in0.0 mm 0.00 in0.0 mm 0.00 in0.0 mm
12:44 AM 54.7°F12.6°C 38.9°F3.8°C 55% 1.0 mph SE1.6 kmh SE 2.0 mph3.2 kmh 29.59 in1002.0 mb 0.00 in0.0 mm 0.00 in0.0 mm 0.00 in0.0 mm
12:39 AM 54.7°F12.6°C 38.9°F3.8°C 55% 1.0 mph SE1.6 kmh SE 2.0 mph3.2 kmh 29.60 in1002.4 mb 0.00 in0.0 mm 0.00 in0.0 mm 0.00 in0.0 mm
12:34 AM 54.6°F12.6°C 38.8°F3.8°C 55% 1.0 mph SE1.6 kmh SE 2.0 mph3.2 kmh 29.60 in1002.4 mb 0.00 in0.0 mm 0.00 in0.0 mm 0.00 in0.0 mm
12:29 AM 54.6°F12.6°C 38.8°F3.8°C 55% 1.0 mph SE1.6 kmh SE 1.0 mph1.6 kmh 29.60 in1002.4 mb 0.00 in0.0 mm 0.00 in0.0 mm 0.00 in0.0 mm
12:24 AM 54.7°F12.6°C 38.4°F3.6°C 54% 1.0 mph SE1.6 kmh SE 1.0 mph1.6 kmh 29.60 in1002.4 mb 0.00 in0.0 mm 0.00 in0.0 mm 0.00 in0.0 mm
12:19 AM 54.9°F12.7°C 38.6°F3.7°C 54% Calm Calm 1.0 mph1.6 kmh 29.60 in1002.4 mb 0.00 in0.0 mm 0.00 in0.0 mm 0.00 in0.0 mm
12:14 AM 55.0°F12.8°C 38.7°F3.7°C 54% Calm Calm 1.0 mph1.6 kmh 29.60 in1002.4 mb 0.00 in0.0 mm 0.00 in0.0 mm 0.00 in0.0 mm
12:09 AM 55.1°F12.8°C 38.3°F3.5°C 53% Calm Calm -- 29.60 in1002.4 mb 0.00 in0.0 mm 0.00 in0.0 mm 0.00 in0.0 mm
12:04 AM 55.1°F12.8°C 38.8°F3.8°C 54% Calm Calm -- 29.61 in1002.7 mb 0.00 in0.0 mm 0.00 in0.0 mm 0.00 in0.0 mm